createdAt,value
2018-08-22T00:00:55.126Z,573.6
2018-08-22T00:01:57.305Z,573.6
2018-08-22T00:02:59.486Z,573.8
2018-08-22T00:04:01.930Z,573.5
2018-08-22T00:05:03.807Z,573.8
2018-08-22T00:06:06.258Z,574
2018-08-22T00:07:08.701Z,573.7
2018-08-22T00:08:10.890Z,574
2018-08-22T00:09:13.069Z,573.8
2018-08-22T00:10:15.515Z,573.9
2018-08-22T00:11:17.697Z,573.5
2018-08-22T00:12:19.884Z,573.7
2018-08-22T00:13:22.328Z,573.7
2018-08-22T00:14:24.777Z,573.7
2018-08-22T00:15:26.679Z,573.7
2018-08-22T00:16:29.125Z,573.7
2018-08-22T00:17:31.028Z,573.6
2018-08-22T00:18:33.198Z,573.8
2018-08-22T00:19:35.647Z,574.4
2018-08-22T00:20:37.815Z,574.2
2018-08-22T00:21:40.283Z,574.1
2018-08-22T00:22:42.474Z,574
2018-08-22T00:23:44.650Z,574.3
2018-08-22T00:24:47.094Z,574.3
2018-08-22T00:25:49.264Z,574.2
2018-08-22T00:26:51.521Z,574.2
2018-08-22T00:27:53.968Z,574.3
2018-08-22T00:28:56.152Z,574.5
2018-08-22T00:29:58.617Z,574.7
2018-08-22T00:31:01.053Z,574.3
2018-08-22T00:32:02.957Z,574.5
2018-08-22T00:33:05.399Z,574.6
2018-08-22T00:34:07.848Z,574.5
2018-08-22T00:35:10.012Z,574.6
2018-08-22T00:36:12.461Z,574.6
2018-08-22T00:37:14.608Z,574.1
2018-08-22T00:38:17.053Z,574.3
2018-08-22T00:39:19.501Z,574.1
2018-08-22T00:40:21.710Z,574.5
2018-08-22T00:41:24.159Z,574.3
2018-08-22T00:42:26.601Z,574.6
2018-08-22T00:43:28.767Z,574.3
2018-08-22T00:44:30.912Z,574.3
2018-08-22T00:45:33.073Z,574.2
2018-08-22T00:46:35.533Z,574
2018-08-22T00:47:37.984Z,573.8
2018-08-22T00:48:40.152Z,574
2018-08-22T00:49:42.603Z,573.9
2018-08-22T00:50:44.768Z,573.8
2018-08-22T00:51:47.224Z,574
2018-08-22T00:52:49.121Z,574
2018-08-22T00:53:51.289Z,574.1
2018-08-22T00:54:53.185Z,574.2
2018-08-22T00:55:55.624Z,574
2018-08-22T00:56:58.060Z,574.2
2018-08-22T00:58:00.251Z,574.4
2018-08-22T00:59:02.425Z,574.4
2018-08-22T01:00:04.606Z,574.5
2018-08-22T01:01:07.055Z,575
2018-08-22T01:02:09.487Z,575
2018-08-22T01:03:11.386Z,575.3
2018-08-22T01:04:13.824Z,575.6
2018-08-22T01:05:16.014Z,575.6
2018-08-22T01:06:18.189Z,575.6
2018-08-22T01:07:20.121Z,575.5
2018-08-22T01:08:22.290Z,575.4
2018-08-22T01:09:24.463Z,576.1
2018-08-22T01:10:26.908Z,575.8
2018-08-22T01:11:29.352Z,575.9
2018-08-22T01:12:31.796Z,576.1
2018-08-22T01:13:34.233Z,576.3
2018-08-22T01:14:36.421Z,576.3
2018-08-22T01:15:38.867Z,576.1
2018-08-22T01:16:41.306Z,576.6
2018-08-22T01:17:43.506Z,576.3
2018-08-22T01:18:46.049Z,576.1
2018-08-22T01:19:48.216Z,576.1
2018-08-22T01:20:50.650Z,576.5
2018-08-22T01:21:53.111Z,576.4
2018-08-22T01:22:55.255Z,576.6
2018-08-22T01:23:57.140Z,576.6
2018-08-22T01:24:59.576Z,576.3
2018-08-22T01:26:02.029Z,576.6
2018-08-22T01:27:04.205Z,576.4
2018-08-22T01:28:06.400Z,576.8
2018-08-22T01:29:08.849Z,576.5
2018-08-22T01:30:11.028Z,576.9
2018-08-22T01:31:13.188Z,576.9
2018-08-22T01:32:15.625Z,577
2018-08-22T01:33:18.063Z,576.8
2018-08-22T01:34:20.245Z,577.3
2018-08-22T01:35:22.688Z,577.2
2018-08-22T01:36:24.852Z,577.6
2018-08-22T01:37:26.768Z,577.5
2018-08-22T01:38:28.938Z,577.4
2018-08-22T01:39:31.394Z,577.3
2018-08-22T01:40:33.846Z,577.5
2018-08-22T01:41:36.016Z,577.3
2018-08-22T01:42:38.469Z,577.1
2018-08-22T01:43:40.909Z,577.6
2018-08-22T01:44:42.819Z,577.2
2018-08-22T01:45:45.002Z,577
2018-08-22T01:46:47.158Z,576.8
2018-08-22T01:47:49.334Z,577
2018-08-22T01:48:51.507Z,576.8
2018-08-22T01:49:53.664Z,577.1
2018-08-22T01:50:55.869Z,577.3
2018-08-22T01:51:57.799Z,577.2
2018-08-22T01:53:00.235Z,577.5
2018-08-22T01:54:02.689Z,577.9
2018-08-22T01:55:04.839Z,578
2018-08-22T01:56:06.731Z,577.7
2018-08-22T01:57:08.926Z,577.7
2018-08-22T01:58:11.086Z,577.8
2018-08-22T01:59:13.533Z,577.6
2018-08-22T02:00:15.996Z,578
2018-08-22T02:01:18.447Z,577.9
2018-08-22T02:02:20.885Z,578
2018-08-22T02:03:23.073Z,578.1
2018-08-22T02:04:25.237Z,578
2018-08-22T02:05:27.418Z,578.3
2018-08-22T02:06:29.866Z,578.2
2018-08-22T02:07:32.064Z,577.9
2018-08-22T02:08:34.513Z,577.8
2018-08-22T02:09:36.682Z,577.7
2018-08-22T02:10:39.139Z,577.7
2018-08-22T02:11:41.035Z,577.3
2018-08-22T02:12:43.208Z,577.8
2018-08-22T02:13:45.389Z,577.6
2018-08-22T02:14:47.837Z,577.7
2018-08-22T02:15:50.018Z,577.6
2018-08-22T02:16:52.464Z,577.9
2018-08-22T02:17:54.635Z,578.2
2018-08-22T02:18:57.083Z,578.1
2018-08-22T02:19:59.534Z,578
2018-08-22T02:21:01.714Z,577.9
2018-08-22T02:22:03.625Z,578.2
2018-08-22T02:23:05.800Z,578.2
2018-08-22T02:24:07.987Z,578.1
2018-08-22T02:25:10.414Z,578.5
2018-08-22T02:26:12.937Z,578.2
2018-08-22T02:27:15.095Z,578.3
2018-08-22T02:28:16.985Z,578.5
2018-08-22T02:29:19.435Z,578.4
2018-08-22T02:30:21.615Z,578.5
2018-08-22T02:31:24.059Z,578.3
2018-08-22T02:32:25.981Z,578.1
2018-08-22T02:33:28.422Z,578.6
2018-08-22T02:34:30.309Z,578.5
2018-08-22T02:35:32.479Z,578.3
2018-08-22T02:36:34.931Z,578.4
2018-08-22T02:37:37.090Z,578.4
2018-08-22T02:38:39.240Z,578.4
2018-08-22T02:39:41.675Z,578.4
2018-08-22T02:40:44.125Z,578.5
2018-08-22T02:41:45.767Z,578.2
2018-08-22T02:42:47.664Z,578.6
2018-08-22T02:43:49.847Z,578.6
2018-08-22T02:44:52.292Z,578.8
2018-08-22T02:45:54.746Z,579.3
2018-08-22T02:46:56.927Z,578.7
2018-08-22T02:47:59.063Z,578.5
2018-08-22T02:49:01.275Z,578.8
2018-08-22T02:50:03.723Z,578.6
2018-08-22T02:51:05.908Z,578.3
2018-08-22T02:52:08.085Z,578.5
2018-08-22T02:53:10.523Z,578.7
2018-08-22T02:54:12.681Z,578.8
2018-08-22T02:55:15.129Z,578.8
2018-08-22T02:56:17.354Z,578.2
2018-08-22T02:57:19.255Z,578.5
2018-08-22T02:58:21.434Z,578.3
2018-08-22T02:59:23.628Z,578.7
2018-08-22T03:00:26.074Z,578.4
2018-08-22T03:01:28.246Z,578.6
2018-08-22T03:02:30.693Z,578.9
2018-08-22T03:03:32.875Z,578.8
2018-08-22T03:04:35.315Z,578.7
2018-08-22T03:05:37.772Z,579
2018-08-22T03:06:39.708Z,579.1
2018-08-22T03:07:42.130Z,579.2
2018-08-22T03:08:44.311Z,579.2
2018-08-22T03:09:46.487Z,579.5
2018-08-22T03:10:48.938Z,579.3
2018-08-22T03:11:51.128Z,579.6
2018-08-22T03:12:53.565Z,579.4
2018-08-22T03:13:56.019Z,579.4
2018-08-22T03:14:58.467Z,579.5
2018-08-22T03:16:00.354Z,579.3
2018-08-22T03:17:02.225Z,579.3
2018-08-22T03:18:04.400Z,579.7
2018-08-22T03:19:06.575Z,579.4
2018-08-22T03:20:08.785Z,579.4
2018-08-22T03:21:10.947Z,579.4
2018-08-22T03:22:13.399Z,579.3
2018-08-22T03:23:15.845Z,579.5
2018-08-22T03:24:18.026Z,579.3
2018-08-22T03:25:20.190Z,579.2
2018-08-22T03:26:22.642Z,579.2
2018-08-22T03:27:24.554Z,579.2
2018-08-22T03:28:27.003Z,579.3
2018-08-22T03:29:29.155Z,579.3
2018-08-22T03:30:31.598Z,579.3
2018-08-22T03:31:33.764Z,579.5
2018-08-22T03:32:35.917Z,579.6
2018-08-22T03:33:38.387Z,579.2
2018-08-22T03:34:40.825Z,579.3
2018-08-22T03:35:43.289Z,579.2
2018-08-22T03:36:45.725Z,579.2
2018-08-22T03:37:47.623Z,579.2
2018-08-22T03:38:49.803Z,579.3
2018-08-22T03:39:51.983Z,579.4
2018-08-22T03:40:54.435Z,579.2
2018-08-22T03:41:56.876Z,579.4
2018-08-22T03:42:59.055Z,579.4
2018-08-22T03:44:01.233Z,579.5
2018-08-22T03:45:03.696Z,579.5
2018-08-22T03:46:05.855Z,579.3
2018-08-22T03:47:08.026Z,579.7
2018-08-22T03:48:10.466Z,579.4
2018-08-22T03:49:12.923Z,579.3
2018-08-22T03:50:15.112Z,579.6
2018-08-22T03:51:17.557Z,579.6
2018-08-22T03:52:19.786Z,579.7
2018-08-22T03:53:21.950Z,579.6
2018-08-22T03:54:24.806Z,579.3
2018-08-22T03:55:26.802Z,579.5
2018-08-22T03:56:29.043Z,579.4
2018-08-22T03:57:31.239Z,579.4
2018-08-22T03:58:33.150Z,579.2
2018-08-22T03:59:34.790Z,579.1
2018-08-22T04:00:37.281Z,579.3
2018-08-22T04:01:39.725Z,579.2
2018-08-22T04:02:42.170Z,579.2
2018-08-22T04:03:44.363Z,579.3
2018-08-22T04:04:46.539Z,579
2018-08-22T04:05:48.177Z,579.2
2018-08-22T04:06:50.624Z,579.2
2018-08-22T04:07:53.089Z,578.9
2018-08-22T04:08:55.552Z,579
2018-08-22T04:09:57.770Z,578.9
2018-08-22T04:10:59.126Z,578.8
2018-08-22T04:12:01.363Z,578.4
2018-08-22T04:13:03.827Z,578.9
2018-08-22T04:14:06.001Z,579
2018-08-22T04:15:07.619Z,578.8
2018-08-22T04:16:09.506Z,579.2
2018-08-22T04:17:11.676Z,579
2018-08-22T04:18:14.126Z,578.8
2018-08-22T04:19:16.027Z,578.9
2018-08-22T04:20:18.474Z,578.8
2018-08-22T04:21:20.640Z,578.7
2018-08-22T04:22:22.790Z,579
2018-08-22T04:23:25.253Z,578.4
2018-08-22T04:24:27.415Z,578.8
2018-08-22T04:25:29.869Z,578.6
2018-08-22T04:26:32.329Z,578.8
2018-08-22T04:27:34.770Z,578.7
2018-08-22T04:28:37.214Z,578.8
2018-08-22T04:29:39.433Z,578.6
2018-08-22T04:30:41.880Z,578.7
2018-08-22T04:31:43.795Z,579
2018-08-22T04:32:45.956Z,578.7
2018-08-22T04:33:48.139Z,578.5
2018-08-22T04:34:50.036Z,578.3
2018-08-22T04:35:52.508Z,578.4
2018-08-22T04:36:54.677Z,578.4
2018-08-22T04:37:57.127Z,578.7
2018-08-22T04:38:59.059Z,578.6
2018-08-22T04:40:01.515Z,578.6
2018-08-22T04:41:03.972Z,578.5
2018-08-22T04:42:05.620Z,578.4
2018-08-22T04:43:07.260Z,578.4
2018-08-22T04:44:09.415Z,578.2
2018-08-22T04:45:11.877Z,578.1
2018-08-22T04:46:14.324Z,578.1
2018-08-22T04:47:16.789Z,578.1
2018-08-22T04:48:18.657Z,577.8
2018-08-22T04:49:20.615Z,577.9
2018-08-22T04:50:22.772Z,577.7
2018-08-22T04:51:25.229Z,577.6
2018-08-22T04:52:27.410Z,578
2018-08-22T04:53:29.856Z,577.4
2018-08-22T04:54:31.460Z,577.4
2018-08-22T04:55:33.635Z,577.4
2018-08-22T04:56:35.812Z,577.3
2018-08-22T04:57:37.996Z,577.1
2018-08-22T04:58:40.152Z,577.1
2018-08-22T04:59:42.050Z,577.2
2018-08-22T05:00:44.507Z,576.5
2018-08-22T05:01:46.683Z,576.8
2018-08-22T05:02:48.873Z,577
2018-08-22T05:03:51.045Z,576.5
2018-08-22T05:04:53.526Z,576.6
2018-08-22T05:05:56.198Z,577
2018-08-22T05:06:58.124Z,576.5
2018-08-22T05:08:00.592Z,576.4
2018-08-22T05:09:02.491Z,576.2
2018-08-22T05:10:04.948Z,576.3
2018-08-22T05:11:07.412Z,576.1
2018-08-22T05:12:09.867Z,576
2018-08-22T05:13:12.046Z,575.7
2018-08-22T05:14:14.244Z,575.5
2018-08-22T05:15:16.429Z,575.5
2018-08-22T05:16:18.875Z,575.4
2018-08-22T05:17:21.063Z,575.6
2018-08-22T05:18:23.523Z,575.3
2018-08-22T05:19:25.720Z,575.6
2018-08-22T05:20:28.181Z,575.4
2018-08-22T05:21:30.634Z,575.5
2018-08-22T05:22:32.789Z,575.3
2018-08-22T05:23:34.998Z,575.8
2018-08-22T05:24:36.940Z,575.5
2018-08-22T05:25:38.825Z,575.4
2018-08-22T05:26:40.713Z,575.5
2018-08-22T05:27:42.618Z,575.7
2018-08-22T05:28:44.536Z,575.6
2018-08-22T05:29:46.450Z,575.4
2018-08-22T05:30:48.893Z,575.3
2018-08-22T05:31:50.787Z,575.1
2018-08-22T05:32:52.959Z,575
2018-08-22T05:33:55.394Z,575.2
2018-08-22T05:34:57.851Z,575.2
2018-08-22T05:35:59.727Z,575.6
2018-08-22T05:37:01.649Z,575.1
2018-08-22T05:38:04.116Z,574.8
2018-08-22T05:39:06.587Z,574.8
2018-08-22T05:40:07.939Z,574.7
2018-08-22T05:41:10.135Z,574.8
2018-08-22T05:42:12.062Z,575
2018-08-22T05:43:14.224Z,574.8
2018-08-22T05:44:16.676Z,574.9
2018-08-22T05:45:19.133Z,574.9
2018-08-22T05:46:21.015Z,574.7
2018-08-22T05:47:22.926Z,574.9
2018-08-22T05:48:25.125Z,574.9
2018-08-22T05:49:27.315Z,574.6
2018-08-22T05:50:29.765Z,574.4
2018-08-22T05:51:32.220Z,574.4
2018-08-22T05:52:34.680Z,574.6
2018-08-22T05:53:36.851Z,574.3
2018-08-22T05:54:39.306Z,574.5
2018-08-22T05:55:41.489Z,574.2
2018-08-22T05:56:43.667Z,573.7
2018-08-22T05:57:46.205Z,574.2
2018-08-22T05:58:48.669Z,574.1
2018-08-22T05:59:50.854Z,574.2
2018-08-22T06:00:53.353Z,574.2
2018-08-22T06:01:55.525Z,573.8
2018-08-22T06:02:58.001Z,573.9
2018-08-22T06:03:59.878Z,573.7
2018-08-22T06:05:02.072Z,573.6
2018-08-22T06:06:04.237Z,573.9
2018-08-22T06:07:06.426Z,574.2
2018-08-22T06:08:08.886Z,573.9
2018-08-22T06:09:11.696Z,574
2018-08-22T06:10:13.932Z,573.8
2018-08-22T06:11:16.388Z,573.8
2018-08-22T06:12:18.571Z,573.8
2018-08-22T06:13:21.016Z,574
2018-08-22T06:14:23.198Z,573.9
2018-08-22T06:15:25.659Z,574.2
2018-08-22T06:16:28.101Z,574.1
2018-08-22T06:17:30.553Z,574.6
2018-08-22T06:18:32.441Z,574.5
2018-08-22T06:19:34.609Z,574.3
2018-08-22T06:20:37.051Z,574.6
2018-08-22T06:21:39.251Z,574.7
2018-08-22T06:22:41.702Z,574.9
2018-08-22T06:23:44.161Z,575.3
2018-08-22T06:24:46.346Z,574.6
2018-08-22T06:25:48.794Z,574.7
2018-08-22T06:26:51.246Z,574.7
2018-08-22T06:27:53.706Z,574.7
2018-08-22T06:28:55.877Z,574.9
2018-08-22T06:29:58.320Z,575
2018-08-22T06:31:00.775Z,574.8
2018-08-22T06:32:03.246Z,575
2018-08-22T06:33:06.162Z,575.2
2018-08-22T06:34:08.676Z,575.1
2018-08-22T06:35:10.885Z,575.2
2018-08-22T06:36:13.491Z,574.9
2018-08-22T06:37:15.999Z,574.8
2018-08-22T06:38:18.447Z,575.3
2018-08-22T06:39:20.634Z,575
2018-08-22T06:40:22.258Z,575.1
2018-08-22T06:41:24.711Z,574.8
2018-08-22T06:42:26.600Z,574.9
2018-08-22T06:43:29.045Z,574.7
2018-08-22T06:44:31.483Z,574.7
2018-08-22T06:45:33.956Z,574.6
2018-08-22T06:46:36.405Z,575
2018-08-22T06:47:38.891Z,574.8
2018-08-22T06:48:40.509Z,575.1
2018-08-22T06:49:42.684Z,574.8
2018-08-22T06:50:44.342Z,574.7
2018-08-22T06:51:46.810Z,574.8
2018-08-22T06:52:48.987Z,574.7
2018-08-22T06:53:51.454Z,574.9
2018-08-22T06:54:53.923Z,575.1
2018-08-22T06:55:56.367Z,575.1
2018-08-22T06:56:58.628Z,574.9
2018-08-22T06:58:01.074Z,575
2018-08-22T06:59:03.252Z,574.8
2018-08-22T07:00:05.427Z,574.9
2018-08-22T07:01:07.875Z,574.9
2018-08-22T07:02:10.322Z,574.9
2018-08-22T07:03:12.776Z,574.8
2018-08-22T07:04:14.662Z,575
2018-08-22T07:05:16.567Z,575
2018-08-22T07:06:18.750Z,575
2018-08-22T07:07:20.959Z,575
2018-08-22T07:08:22.581Z,575.2
2018-08-22T07:09:24.779Z,574.8
2018-08-22T07:10:26.967Z,574.7
2018-08-22T07:11:29.160Z,574.6
2018-08-22T07:12:31.627Z,574.6
2018-08-22T07:13:33.540Z,574.5
2018-08-22T07:14:36.017Z,574.7
2018-08-22T07:15:38.463Z,574.8
2018-08-22T07:16:40.368Z,575
2018-08-22T07:17:42.517Z,575
2018-08-22T07:18:44.404Z,575.1
2018-08-22T07:19:46.569Z,575.2
2018-08-22T07:20:49.127Z,574.8
2018-08-22T07:21:51.619Z,575.1
2018-08-22T07:22:54.074Z,574.9
2018-08-22T07:23:55.987Z,574.7
2018-08-22T07:24:57.890Z,575
2018-08-22T07:25:59.791Z,575
2018-08-22T07:27:02.231Z,575
2018-08-22T07:28:04.672Z,575.1
2018-08-22T07:29:07.142Z,574.9
2018-08-22T07:30:09.668Z,575.2
2018-08-22T07:31:11.474Z,575
2018-08-22T07:32:13.378Z,575.2
2018-08-22T07:33:15.548Z,575.2
2018-08-22T07:34:17.757Z,574.8
2018-08-22T07:35:19.938Z,574.8
2018-08-22T07:36:21.853Z,575
2018-08-22T07:37:23.768Z,575.2
2018-08-22T07:38:25.938Z,575
2018-08-22T07:39:28.398Z,575.2
2018-08-22T07:40:30.852Z,575.2
2018-08-22T07:41:33.323Z,575.1
2018-08-22T07:42:35.767Z,574.8
2018-08-22T07:43:38.207Z,574.9
2018-08-22T07:44:40.666Z,575
2018-08-22T07:45:42.815Z,575.1
2018-08-22T07:46:44.999Z,575
2018-08-22T07:47:46.946Z,574.9
2018-08-22T07:48:49.120Z,575
2018-08-22T07:49:51.577Z,574.9
2018-08-22T07:50:53.747Z,575.1
2018-08-22T07:51:55.913Z,574.9
2018-08-22T07:52:57.811Z,574.7
2018-08-22T07:53:59.709Z,574.6
2018-08-22T07:55:01.880Z,574.8
2018-08-22T07:56:04.089Z,575
2018-08-22T07:57:06.313Z,574.8
2018-08-22T07:58:08.476Z,574.6
2018-08-22T07:59:10.639Z,574.7
2018-08-22T08:00:13.712Z,574.7
2018-08-22T08:01:16.240Z,574.7
2018-08-22T08:02:18.727Z,574.7
2018-08-22T08:03:20.947Z,574.5
2018-08-22T08:04:23.406Z,574.7
2018-08-22T08:05:26.088Z,574.9
2018-08-22T08:06:28.320Z,574.6
2018-08-22T08:07:30.780Z,574.8
2018-08-22T08:08:33.438Z,574.4
2018-08-22T08:09:35.357Z,574.7
2018-08-22T08:10:37.543Z,574.4
2018-08-22T08:11:39.713Z,574.9
2018-08-22T08:12:41.619Z,575
2018-08-22T08:13:44.175Z,575.3
2018-08-22T08:14:46.621Z,574.9
2018-08-22T08:15:48.852Z,574.9
2018-08-22T08:16:51.311Z,574.7
2018-08-22T08:17:53.769Z,574.8
2018-08-22T08:18:55.982Z,574.8
2018-08-22T08:19:57.951Z,574.6
2018-08-22T08:21:00.435Z,575
2018-08-22T08:22:02.633Z,574.9
2018-08-22T08:23:04.798Z,574.3
2018-08-22T08:24:06.977Z,574.3
2018-08-22T08:25:09.415Z,574.5
2018-08-22T08:26:12.359Z,574.5
2018-08-22T08:27:14.798Z,574.8
2018-08-22T08:28:17.237Z,574.7
2018-08-22T08:29:19.706Z,574.4
2018-08-22T08:30:21.888Z,574.8
2018-08-22T08:31:24.106Z,575.1
2018-08-22T08:32:26.567Z,575.3
2018-08-22T08:33:29.020Z,575.6
2018-08-22T08:34:31.220Z,575.5
2018-08-22T08:35:33.418Z,575.7
2018-08-22T08:36:35.605Z,575.8
2018-08-22T08:37:37.756Z,575.8
2018-08-22T08:38:39.992Z,575.8
2018-08-22T08:39:42.173Z,575.3
2018-08-22T08:40:44.672Z,575.6
2018-08-22T08:41:48.110Z,576
2018-08-22T08:42:50.570Z,575.9
2018-08-22T08:43:52.747Z,576.3
2018-08-22T08:44:54.961Z,576.2
2018-08-22T08:45:57.145Z,576.3
2018-08-22T08:46:59.678Z,576.2
2018-08-22T08:48:01.600Z,576.3
2018-08-22T08:49:03.787Z,576.7
2018-08-22T08:50:06.323Z,576.5
2018-08-22T08:51:08.770Z,576.5
2018-08-22T08:52:10.739Z,576.4
2018-08-22T08:53:12.627Z,577
2018-08-22T08:54:15.077Z,576.8
2018-08-22T08:55:16.701Z,576.7
2018-08-22T08:56:19.163Z,576.5
2018-08-22T08:57:21.559Z,576.5
2018-08-22T08:58:23.834Z,576.5
2018-08-22T08:59:26.369Z,576.8
2018-08-22T09:00:28.610Z,576.8
2018-08-22T09:01:30.554Z,576.6
2018-08-22T09:02:32.462Z,577
2018-08-22T09:03:34.936Z,577
2018-08-22T09:04:37.413Z,577.3
2018-08-22T09:05:39.592Z,577.3
2018-08-22T09:06:42.136Z,577.1
2018-08-22T09:07:44.310Z,577.3
2018-08-22T09:08:46.223Z,577.6
2018-08-22T09:09:48.693Z,577.6
2018-08-22T09:10:51.868Z,577.6
2018-08-22T09:11:54.160Z,577.8
2018-08-22T09:12:56.336Z,577.6
2018-08-22T09:13:58.792Z,577.5
2018-08-22T09:15:01.248Z,577.8
2018-08-22T09:16:02.854Z,577.8
2018-08-22T09:17:05.312Z,578.3
2018-08-22T09:18:07.769Z,577.8
2018-08-22T09:19:10.217Z,577.7
2018-08-22T09:20:12.686Z,577.8
2018-08-22T09:21:14.899Z,577.7
2018-08-22T09:22:17.039Z,577.5
2018-08-22T09:23:19.265Z,578
2018-08-22T09:24:21.851Z,577.8
2018-08-22T09:25:23.769Z,577.8
2018-08-22T09:26:25.968Z,578.3
2018-08-22T09:27:28.118Z,578.1
2018-08-22T09:28:30.024Z,578.3
2018-08-22T09:29:32.705Z,578
2018-08-22T09:30:35.160Z,578.4
2018-08-22T09:31:37.342Z,578.2
2018-08-22T09:32:39.263Z,578
2018-08-22T09:33:41.934Z,577.5
2018-08-22T09:34:43.506Z,578.1
2018-08-22T09:35:45.981Z,577.9
2018-08-22T09:36:48.444Z,577.8
2018-08-22T09:37:50.369Z,578.2
2018-08-22T09:38:52.546Z,577.9
2018-08-22T09:39:55.213Z,577.7
2018-08-22T09:40:57.655Z,577.8
2018-08-22T09:41:59.803Z,578.3
2018-08-22T09:43:02.254Z,578.3
2018-08-22T09:44:04.726Z,577.9
2018-08-22T09:45:07.224Z,578
2018-08-22T09:46:09.123Z,578
2018-08-22T09:47:11.116Z,578.3
2018-08-22T09:48:13.326Z,578.3
2018-08-22T09:49:15.507Z,578.1
2018-08-22T09:50:17.772Z,578.1
2018-08-22T09:51:20.000Z,578.3
2018-08-22T09:52:22.450Z,578.5
2018-08-22T09:53:24.899Z,578.4
2018-08-22T09:54:26.517Z,578.7
2018-08-22T09:55:28.981Z,578.8
2018-08-22T09:56:31.419Z,578.8
2018-08-22T09:57:33.878Z,579
2018-08-22T09:58:36.584Z,578.9
2018-08-22T09:59:39.043Z,578.9
2018-08-22T10:00:41.847Z,579.2
2018-08-22T10:01:44.322Z,579.2
2018-08-22T10:02:46.788Z,579.5
2018-08-22T10:03:48.956Z,579.3
2018-08-22T10:04:51.146Z,579.1
2018-08-22T10:05:53.035Z,579.1
2018-08-22T10:06:55.906Z,579.1
2018-08-22T10:07:58.185Z,579
2018-08-22T10:09:00.645Z,578.8
2018-08-22T10:10:03.313Z,579.3
2018-08-22T10:11:05.587Z,579.3
2018-08-22T10:12:08.060Z,579.3
2018-08-22T10:13:10.509Z,579.6
2018-08-22T10:14:12.704Z,579.6
2018-08-22T10:15:14.920Z,579.6
2018-08-22T10:16:17.382Z,579.9
2018-08-22T10:17:19.875Z,579.9
2018-08-22T10:18:22.325Z,580
2018-08-22T10:19:24.784Z,579.8
2018-08-22T10:20:27.235Z,580.5
2018-08-22T10:21:29.417Z,580.2
2018-08-22T10:22:31.600Z,579.9
2018-08-22T10:23:33.764Z,580.1
2018-08-22T10:24:36.226Z,580.2
2018-08-22T10:25:38.425Z,580.3
2018-08-22T10:26:41.489Z,580.8
2018-08-22T10:27:43.949Z,580.4
2018-08-22T10:28:45.572Z,580.3
2018-08-22T10:29:48.028Z,580.8
2018-08-22T10:30:50.693Z,580.7
2018-08-22T10:31:52.869Z,580.5
2018-08-22T10:32:56.431Z,580.9
2018-08-22T10:33:58.758Z,581
2018-08-22T10:35:01.261Z,580.7
2018-08-22T10:36:03.236Z,581.4
2018-08-22T10:37:05.429Z,581.2
2018-08-22T10:38:07.865Z,581.6
2018-08-22T10:39:10.029Z,581.4
2018-08-22T10:40:12.518Z,581.8
2018-08-22T10:41:14.693Z,581.7
2018-08-22T10:42:17.141Z,581.8
2018-08-22T10:43:19.305Z,581.8
2018-08-22T10:44:21.577Z,582
2018-08-22T10:45:23.382Z,582.1
2018-08-22T10:46:25.580Z,582.2
2018-08-22T10:47:27.776Z,581.9
2018-08-22T10:48:30.327Z,582.2
2018-08-22T10:49:32.265Z,582
2018-08-22T10:50:35.002Z,582.3
2018-08-22T10:51:37.447Z,582.2
2018-08-22T10:52:39.901Z,582.7
2018-08-22T10:53:42.376Z,582.5
2018-08-22T10:54:44.542Z,582.5
2018-08-22T10:55:46.171Z,582.6
2018-08-22T10:56:48.347Z,582.3
2018-08-22T10:57:50.528Z,582.4
2018-08-22T10:58:53.002Z,583.1
2018-08-22T10:59:55.516Z,582.7
2018-08-22T11:00:57.691Z,582.7
2018-08-22T11:01:59.884Z,582.8
2018-08-22T11:03:02.326Z,583
2018-08-22T11:04:03.937Z,583.1
2018-08-22T11:05:06.388Z,583.1
2018-08-22T11:06:08.281Z,583
2018-08-22T11:07:10.741Z,582.9
2018-08-22T11:08:12.383Z,583
2018-08-22T11:09:14.830Z,582.7
2018-08-22T11:10:16.758Z,583.2
2018-08-22T11:11:18.660Z,582.9
2018-08-22T11:12:20.559Z,583
2018-08-22T11:13:22.756Z,582.6
2018-08-22T11:14:24.678Z,583.1
2018-08-22T11:15:26.592Z,583
2018-08-22T11:16:29.045Z,583.2
2018-08-22T11:17:31.218Z,583.6
2018-08-22T11:18:33.400Z,583.6
2018-08-22T11:19:35.566Z,584
2018-08-22T11:20:37.718Z,583.8
2018-08-22T11:21:40.171Z,583.8
2018-08-22T11:22:42.630Z,584.6
2018-08-22T11:23:44.778Z,584.5
2018-08-22T11:24:47.217Z,583.7
2018-08-22T11:25:49.431Z,583.8
2018-08-22T11:26:51.885Z,584.9
2018-08-22T11:27:53.780Z,584.6
2018-08-22T11:28:55.986Z,583.9
2018-08-22T11:29:58.436Z,583.6
2018-08-22T11:31:00.900Z,583.8
2018-08-22T11:32:02.556Z,584
2018-08-22T11:33:04.996Z,584.3
2018-08-22T11:34:07.466Z,584.7
2018-08-22T11:35:09.638Z,584.4
2018-08-22T11:36:11.829Z,584.4
2018-08-22T11:37:14.280Z,584.5
2018-08-22T11:38:16.720Z,584.6
2018-08-22T11:39:18.886Z,584.4
2018-08-22T11:40:21.044Z,584.5
2018-08-22T11:41:23.230Z,585
2018-08-22T11:42:25.410Z,584.4
2018-08-22T11:43:27.867Z,584.7
2018-08-22T11:44:30.322Z,584.5
2018-08-22T11:45:32.775Z,584.9
2018-08-22T11:46:34.945Z,584.7
2018-08-22T11:47:37.089Z,584.8
2018-08-22T11:48:39.537Z,585.1
2018-08-22T11:49:41.998Z,584.9
2018-08-22T11:50:44.456Z,584.7
2018-08-22T11:51:46.668Z,584.8
2018-08-22T11:52:49.115Z,585.1
2018-08-22T11:53:51.314Z,585.1
2018-08-22T11:54:53.764Z,585.2
2018-08-22T11:55:56.312Z,585
2018-08-22T11:56:57.974Z,585.2
2018-08-22T11:58:00.422Z,585.4
2018-08-22T11:59:02.599Z,585.5
2018-08-22T12:00:05.054Z,585.6
2018-08-22T12:01:07.498Z,585.2
2018-08-22T12:02:09.432Z,585.7
2018-08-22T12:03:11.592Z,585.8
2018-08-22T12:04:14.050Z,585.5
2018-08-22T12:05:16.232Z,585.4
2018-08-22T12:06:18.677Z,585.5
2018-08-22T12:07:20.866Z,585.5
2018-08-22T12:08:22.786Z,585.9
2018-08-22T12:09:24.677Z,585.4
2018-08-22T12:10:27.157Z,585.4
2018-08-22T12:11:29.357Z,585.8
2018-08-22T12:12:31.805Z,585.8
2018-08-22T12:13:33.715Z,585.9
2018-08-22T12:14:35.875Z,586.1
2018-08-22T12:15:38.324Z,586.4
2018-08-22T12:16:40.527Z,586.2
2018-08-22T12:17:42.716Z,586.5
2018-08-22T12:18:44.882Z,585.8
2018-08-22T12:19:47.067Z,586.3
2018-08-22T12:20:49.246Z,586.2
2018-08-22T12:21:51.701Z,586.1
2018-08-22T12:22:53.660Z,586.1
2018-08-22T12:23:56.167Z,586.3
2018-08-22T12:24:58.355Z,586.4
2018-08-22T12:26:00.278Z,586.2
2018-08-22T12:27:02.431Z,586.2
2018-08-22T12:28:04.366Z,586.1
2018-08-22T12:29:06.814Z,586.5
2018-08-22T12:30:08.992Z,587
2018-08-22T12:31:12.023Z,586.7
2018-08-22T12:32:14.145Z,586.8
2018-08-22T12:33:16.602Z,586.7
2018-08-22T12:34:18.769Z,587.1
2018-08-22T12:35:20.953Z,587.1
2018-08-22T12:36:23.417Z,587.3
2018-08-22T12:37:25.306Z,587.1
2018-08-22T12:38:27.505Z,587
2018-08-22T12:39:29.961Z,587.3
2018-08-22T12:40:32.129Z,587.4
2018-08-22T12:41:34.293Z,587.4
2018-08-22T12:42:36.766Z,587.2
2018-08-22T12:43:38.667Z,587
2018-08-22T12:44:40.766Z,587.3
2018-08-22T12:45:43.261Z,587.5
2018-08-22T12:46:45.437Z,587.7
2018-08-22T12:47:47.366Z,587.4
2018-08-22T12:48:49.813Z,587.2
2018-08-22T12:49:52.271Z,587.3
2018-08-22T12:50:54.439Z,587.7
2018-08-22T12:51:56.897Z,587.8
2018-08-22T12:52:59.103Z,587.6
2018-08-22T12:54:00.721Z,588
2018-08-22T12:55:02.895Z,587.9
2018-08-22T12:56:05.339Z,587.8
2018-08-22T12:57:07.881Z,587.8
2018-08-22T12:58:09.801Z,587.9
2018-08-22T12:59:11.690Z,587.8
2018-08-22T13:00:14.142Z,587.9
2018-08-22T13:01:16.597Z,587.6
2018-08-22T13:02:18.789Z,588
2018-08-22T13:03:21.226Z,588.2
2018-08-22T13:04:23.423Z,588.3
2018-08-22T13:05:25.587Z,588.4
2018-08-22T13:06:28.055Z,588.3
2018-08-22T13:07:29.954Z,588.4
2018-08-22T13:08:32.419Z,588.5
2018-08-22T13:09:34.884Z,588
2018-08-22T13:10:37.084Z,588.8
2018-08-22T13:11:39.533Z,588.7
2018-08-22T13:12:41.716Z,588.7
2018-08-22T13:13:43.870Z,588.8
2018-08-22T13:14:46.313Z,588.9
2018-08-22T13:15:48.478Z,589.2
2018-08-22T13:16:51.071Z,589.1
2018-08-22T13:17:53.220Z,589.3
2018-08-22T13:18:55.684Z,589.7
2018-08-22T13:19:58.147Z,589.5
2018-08-22T13:21:00.319Z,589.9
2018-08-22T13:22:02.784Z,590.1
2018-08-22T13:23:04.953Z,590.4
2018-08-22T13:24:07.023Z,590.9
2018-08-22T13:25:09.490Z,590.6
2018-08-22T13:26:11.679Z,589.9
2018-08-22T13:27:14.122Z,590.1
2018-08-22T13:28:16.290Z,590.6